createdAt,value
2023-04-22T00:00:20.307Z,1023.00
2023-04-22T00:01:20.286Z,1033.00
2023-04-22T00:02:20.343Z,1023.00
2023-04-22T00:03:20.500Z,1018.00
2023-04-22T00:04:20.607Z,1018.00
2023-04-22T00:05:20.823Z,1025.00
2023-04-22T00:06:20.410Z,1032.00
2023-04-22T00:07:20.442Z,1032.00
2023-04-22T00:08:20.462Z,1013.00
2023-04-22T00:09:20.485Z,1013.00
2023-04-22T00:10:20.518Z,1029.00
2023-04-22T00:11:20.546Z,1015.00
2023-04-22T00:12:20.563Z,1003.00
2023-04-22T00:13:20.580Z,1007.00
2023-04-22T00:14:20.608Z,1004.00
2023-04-22T00:15:20.637Z,993.00
2023-04-22T00:16:20.685Z,1019.00
2023-04-22T00:17:20.787Z,1015.00
2023-04-22T00:18:20.714Z,1015.00
2023-04-22T00:19:20.738Z,1014.00
2023-04-22T00:20:20.761Z,1011.00
2023-04-22T00:21:20.793Z,1001.00
2023-04-22T00:22:20.805Z,1004.00
2023-04-22T00:23:20.841Z,1013.00
2023-04-22T00:24:20.862Z,1013.00
2023-04-22T00:25:20.896Z,1002.00
2023-04-22T00:26:20.928Z,1003.00
2023-04-22T00:27:20.947Z,998.00
2023-04-22T00:28:20.965Z,1002.00
2023-04-22T00:29:20.993Z,987.00
2023-04-22T00:30:21.009Z,991.00
2023-04-22T00:31:21.061Z,996.00
2023-04-22T00:32:21.048Z,997.00
2023-04-22T00:33:21.072Z,987.00
2023-04-22T00:34:21.090Z,994.00
2023-04-22T00:35:21.129Z,984.00
2023-04-22T00:36:21.145Z,985.00
2023-04-22T00:37:21.160Z,1005.00
2023-04-22T00:38:21.174Z,989.00
2023-04-22T00:39:21.183Z,982.00
2023-04-22T00:40:21.202Z,969.00
2023-04-22T00:41:21.239Z,976.00
2023-04-22T00:42:21.268Z,993.00
2023-04-22T00:43:21.281Z,968.00
2023-04-22T00:44:21.296Z,992.00
2023-04-22T00:45:21.315Z,986.00
2023-04-22T00:46:21.359Z,976.00
2023-04-22T00:47:21.337Z,956.00
2023-04-22T00:48:21.370Z,958.00
2023-04-22T00:49:21.387Z,969.00
2023-04-22T00:50:21.432Z,969.00
2023-04-22T00:51:21.443Z,960.00
2023-04-22T00:52:21.500Z,974.00
2023-04-22T00:53:21.501Z,952.00
2023-04-22T00:54:21.545Z,950.00
2023-04-22T00:55:21.582Z,959.00
2023-04-22T00:56:21.587Z,985.00
2023-04-22T00:57:21.620Z,965.00
2023-04-22T00:58:21.649Z,971.00
2023-04-22T00:59:21.673Z,969.00
2023-04-22T01:00:21.712Z,963.00
2023-04-22T01:01:21.815Z,945.00
2023-04-22T01:02:21.819Z,957.00
2023-04-22T01:03:21.936Z,944.00
2023-04-22T01:04:21.922Z,945.00
2023-04-22T01:05:21.847Z,951.00
2023-04-22T01:06:21.869Z,944.00
2023-04-22T01:07:21.889Z,958.00
2023-04-22T01:08:21.938Z,968.00
2023-04-22T01:09:21.948Z,966.00
2023-04-22T01:10:21.958Z,940.00
2023-04-22T01:11:21.971Z,960.00
2023-04-22T01:12:21.989Z,959.00
2023-04-22T01:13:22.032Z,955.00
2023-04-22T01:14:22.053Z,962.00
2023-04-22T01:15:22.089Z,958.00
2023-04-22T01:16:22.190Z,940.00
2023-04-22T01:17:22.275Z,955.00
2023-04-22T01:18:22.147Z,931.00
2023-04-22T01:19:22.183Z,946.00
2023-04-22T01:20:22.186Z,928.00
2023-04-22T01:21:22.215Z,944.00
2023-04-22T01:22:22.234Z,943.00
2023-04-22T01:23:22.255Z,937.00
2023-04-22T01:24:22.276Z,926.00
2023-04-22T01:25:22.298Z,961.00
2023-04-22T01:26:22.322Z,935.00
2023-04-22T01:27:22.350Z,962.00
2023-04-22T01:28:22.339Z,950.00
2023-04-22T01:29:22.380Z,963.00
2023-04-22T01:30:22.399Z,934.00
2023-04-22T01:31:22.411Z,957.00
2023-04-22T01:32:22.461Z,952.00
2023-04-22T01:33:22.434Z,956.00
2023-04-22T01:34:22.420Z,930.00
2023-04-22T01:35:22.413Z,923.00
2023-04-22T01:36:22.440Z,924.00
2023-04-22T01:37:22.488Z,910.00
2023-04-22T01:38:22.487Z,935.00
2023-04-22T01:39:22.481Z,941.00
2023-04-22T01:40:22.495Z,934.00
2023-04-22T01:41:22.505Z,922.00
2023-04-22T01:42:22.480Z,937.00
2023-04-22T01:43:22.513Z,927.00
2023-04-22T01:44:22.518Z,924.00
2023-04-22T01:45:22.533Z,939.00
2023-04-22T01:46:22.658Z,945.00
2023-04-22T01:47:22.597Z,924.00
2023-04-22T01:48:22.629Z,915.00
2023-04-22T01:49:22.654Z,920.00
2023-04-22T01:50:22.676Z,943.00
2023-04-22T01:51:22.703Z,928.00
2023-04-22T01:52:22.728Z,926.00
2023-04-22T01:53:22.757Z,924.00
2023-04-22T01:54:22.773Z,942.00
2023-04-22T01:55:22.796Z,911.00
2023-04-22T01:56:22.843Z,907.00
2023-04-22T01:57:22.846Z,937.00
2023-04-22T01:58:22.866Z,897.00
2023-04-22T01:59:22.861Z,922.00
2023-04-22T02:00:22.886Z,931.00
2023-04-22T02:01:22.955Z,946.00
2023-04-22T02:02:22.998Z,910.00
2023-04-22T02:03:23.147Z,929.00
2023-04-22T02:04:22.913Z,929.00
2023-04-22T02:05:22.982Z,939.00
2023-04-22T02:06:22.913Z,924.00
2023-04-22T02:07:22.905Z,895.00
2023-04-22T02:08:22.934Z,933.00
2023-04-22T02:09:22.966Z,941.00
2023-04-22T02:10:22.970Z,920.00
2023-04-22T02:11:22.997Z,929.00
2023-04-22T02:12:23.011Z,920.00
2023-04-22T02:13:23.040Z,917.00
2023-04-22T02:14:23.086Z,886.00
2023-04-22T02:15:23.123Z,903.00
2023-04-22T02:16:23.180Z,938.00
2023-04-22T02:17:23.166Z,928.00
2023-04-22T02:18:23.183Z,896.00
2023-04-22T02:19:23.214Z,901.00
2023-04-22T02:20:23.212Z,908.00
2023-04-22T02:21:23.797Z,906.00
2023-04-22T02:22:23.251Z,899.00
2023-04-22T02:23:23.246Z,900.00
2023-04-22T02:24:23.255Z,907.00
2023-04-22T02:25:23.250Z,900.00
2023-04-22T02:26:23.258Z,908.00
2023-04-22T02:27:23.232Z,878.00
2023-04-22T02:28:23.211Z,900.00
2023-04-22T02:29:23.181Z,883.00
2023-04-22T02:30:23.199Z,909.00
2023-04-22T02:31:23.262Z,899.00
2023-04-22T02:32:23.270Z,900.00
2023-04-22T02:33:23.284Z,885.00
2023-04-22T02:34:23.298Z,892.00
2023-04-22T02:35:23.318Z,898.00
2023-04-22T02:36:23.347Z,898.00
2023-04-22T02:37:23.358Z,901.00
2023-04-22T02:38:23.389Z,879.00
2023-04-22T02:39:23.384Z,901.00
2023-04-22T02:40:23.411Z,894.00
2023-04-22T02:41:23.417Z,877.00
2023-04-22T02:42:23.421Z,904.00
2023-04-22T02:43:23.439Z,883.00
2023-04-22T02:44:23.456Z,882.00
2023-04-22T02:45:23.473Z,881.00
2023-04-22T02:46:23.575Z,892.00
2023-04-22T02:47:23.549Z,892.00
2023-04-22T02:48:23.521Z,907.00
2023-04-22T02:49:23.564Z,877.00
2023-04-22T02:50:23.592Z,877.00
2023-04-22T02:51:23.606Z,861.00
2023-04-22T02:52:23.623Z,878.00
2023-04-22T02:53:23.648Z,881.00
2023-04-22T02:54:23.684Z,885.00
2023-04-22T02:55:23.793Z,904.00
2023-04-22T02:56:23.714Z,862.00
2023-04-22T02:57:23.732Z,870.00
2023-04-22T02:58:23.768Z,848.00
2023-04-22T02:59:23.789Z,852.00
2023-04-22T03:00:23.832Z,883.00
2023-04-22T03:01:24.046Z,873.00
2023-04-22T03:02:24.033Z,865.00
2023-04-22T03:03:24.120Z,890.00
2023-04-22T03:04:24.030Z,856.00
2023-04-22T03:05:23.879Z,867.00
2023-04-22T03:06:23.858Z,846.00
2023-04-22T03:07:23.868Z,880.00
2023-04-22T03:08:23.882Z,890.00
2023-04-22T03:09:23.919Z,855.00
2023-04-22T03:10:23.881Z,882.00
2023-04-22T03:11:23.876Z,858.00
2023-04-22T03:12:23.888Z,832.00
2023-04-22T03:13:23.878Z,859.00
2023-04-22T03:14:23.862Z,855.00
2023-04-22T03:15:23.886Z,825.00
2023-04-22T03:16:23.972Z,829.00
2023-04-22T03:17:23.930Z,828.00
2023-04-22T03:18:23.938Z,831.00
2023-04-22T03:19:23.955Z,818.00
2023-04-22T03:20:23.965Z,850.00
2023-04-22T03:21:23.971Z,830.00
2023-04-22T03:22:24.013Z,832.00
2023-04-22T03:23:23.995Z,854.00
2023-04-22T03:24:23.983Z,828.00
2023-04-22T03:25:24.005Z,815.00
2023-04-22T03:26:24.004Z,801.00
2023-04-22T03:27:24.105Z,788.00
2023-04-22T03:28:24.037Z,810.00
2023-04-22T03:29:24.012Z,801.00
2023-04-22T03:30:24.017Z,806.00
2023-04-22T03:31:23.993Z,863.00
2023-04-22T03:32:24.117Z,813.00
2023-04-22T03:33:23.968Z,810.00
2023-04-22T03:34:23.976Z,775.00
2023-04-22T03:35:24.000Z,797.00
2023-04-22T03:36:24.024Z,816.00
2023-04-22T03:37:24.045Z,817.00
2023-04-22T03:38:24.051Z,830.00
2023-04-22T03:39:24.051Z,802.00
2023-04-22T03:40:24.035Z,786.00
2023-04-22T03:41:24.076Z,809.00
2023-04-22T03:42:24.082Z,785.00
2023-04-22T03:43:24.085Z,847.00
2023-04-22T03:44:24.069Z,802.00
2023-04-22T03:45:24.135Z,793.00
2023-04-22T03:46:24.212Z,812.00
2023-04-22T03:47:24.099Z,814.00
2023-04-22T03:48:24.076Z,801.00
2023-04-22T03:49:24.063Z,783.00
2023-04-22T03:50:24.076Z,812.00
2023-04-22T03:51:24.039Z,815.00
2023-04-22T03:52:24.006Z,779.00
2023-04-22T03:53:23.974Z,786.00
2023-04-22T03:54:23.942Z,805.00
2023-04-22T03:55:23.966Z,751.00
2023-04-22T03:56:23.949Z,783.00
2023-04-22T03:57:23.934Z,794.00
2023-04-22T03:58:23.957Z,799.00
2023-04-22T03:59:23.976Z,783.00
2023-04-22T04:00:23.989Z,804.00
2023-04-22T04:01:23.953Z,753.00
2023-04-22T04:02:24.022Z,804.00
2023-04-22T04:03:24.068Z,803.00
2023-04-22T04:04:24.385Z,742.00
2023-04-22T04:05:24.086Z,793.00
2023-04-22T04:06:23.835Z,794.00
2023-04-22T04:07:23.851Z,769.00
2023-04-22T04:08:23.860Z,763.00
2023-04-22T04:09:23.841Z,784.00
2023-04-22T04:10:23.836Z,759.00
2023-04-22T04:11:23.806Z,744.00
2023-04-22T04:12:23.770Z,718.00
2023-04-22T04:13:23.788Z,770.00
2023-04-22T04:14:23.708Z,741.00
2023-04-22T04:15:23.688Z,749.00
2023-04-22T04:16:23.671Z,710.00
2023-04-22T04:17:23.647Z,735.00
2023-04-22T04:18:23.601Z,747.00
2023-04-22T04:19:23.563Z,744.00
2023-04-22T04:20:23.536Z,739.00
2023-04-22T04:21:23.500Z,735.00
2023-04-22T04:22:23.476Z,708.00
2023-04-22T04:23:23.437Z,699.00
2023-04-22T04:24:23.405Z,710.00
2023-04-22T04:25:23.369Z,708.00
2023-04-22T04:26:23.353Z,706.00
2023-04-22T04:27:23.326Z,730.00
2023-04-22T04:28:23.353Z,735.00
2023-04-22T04:29:23.354Z,731.00
2023-04-22T04:30:23.386Z,697.00
2023-04-22T04:31:23.485Z,699.00
2023-04-22T04:32:23.402Z,672.00
2023-04-22T04:33:23.384Z,747.00
2023-04-22T04:34:23.362Z,673.00
2023-04-22T04:35:23.349Z,709.00
2023-04-22T04:36:23.331Z,695.00
2023-04-22T04:37:23.314Z,672.00
2023-04-22T04:38:23.277Z,708.00
2023-04-22T04:39:23.245Z,666.00
2023-04-22T04:40:23.208Z,671.00
2023-04-22T04:41:23.204Z,685.00
2023-04-22T04:42:23.141Z,668.00
2023-04-22T04:43:23.119Z,654.00
2023-04-22T04:44:23.079Z,659.00
2023-04-22T04:45:23.034Z,659.00
2023-04-22T04:46:23.013Z,656.00
2023-04-22T04:47:23.029Z,662.00
2023-04-22T04:48:22.935Z,666.00
2023-04-22T04:49:22.908Z,657.00
2023-04-22T04:50:22.888Z,651.00
2023-04-22T04:51:22.839Z,676.00
2023-04-22T04:52:22.798Z,671.00
2023-04-22T04:53:22.769Z,662.00
2023-04-22T04:54:22.723Z,670.00
2023-04-22T04:55:22.690Z,660.00
2023-04-22T04:56:22.666Z,655.00
2023-04-22T04:57:22.659Z,658.00
2023-04-22T04:58:22.605Z,656.00
2023-04-22T04:59:22.606Z,643.00
2023-04-22T05:00:22.572Z,648.00
2023-04-22T05:01:22.560Z,662.00
2023-04-22T05:02:23.002Z,646.00
2023-04-22T05:03:22.657Z,652.00
2023-04-22T05:04:22.620Z,653.00
2023-04-22T05:05:22.465Z,643.00
2023-04-22T05:06:22.454Z,654.00
2023-04-22T05:07:22.420Z,665.00
2023-04-22T05:08:22.400Z,655.00
2023-04-22T05:09:22.361Z,645.00
2023-04-22T05:10:22.332Z,649.00
2023-04-22T05:11:22.293Z,651.00
2023-04-22T05:12:22.249Z,634.00
2023-04-22T05:13:22.222Z,649.00
2023-04-22T05:14:22.195Z,637.00
2023-04-22T05:15:22.177Z,651.00
2023-04-22T05:16:22.197Z,648.00
2023-04-22T05:17:22.150Z,650.00
2023-04-22T05:18:22.083Z,646.00
2023-04-22T05:19:22.046Z,630.00
2023-04-22T05:20:22.004Z,640.00
2023-04-22T05:21:21.983Z,647.00
2023-04-22T05:22:21.944Z,634.00
2023-04-22T05:23:21.912Z,642.00
2023-04-22T05:24:21.869Z,634.00
2023-04-22T05:25:21.845Z,625.00
2023-04-22T05:26:21.808Z,636.00
2023-04-22T05:27:21.779Z,631.00
2023-04-22T05:28:21.737Z,625.00
2023-04-22T05:29:21.723Z,628.00
2023-04-22T05:30:21.673Z,619.00
2023-04-22T05:31:21.664Z,628.00
2023-04-22T05:32:21.707Z,628.00
2023-04-22T05:33:21.582Z,620.00
2023-04-22T05:34:21.555Z,622.00
2023-04-22T05:35:21.505Z,625.00
2023-04-22T05:36:21.507Z,632.00
2023-04-22T05:37:21.428Z,634.00
2023-04-22T05:38:21.397Z,614.00
2023-04-22T05:39:21.360Z,616.00
2023-04-22T05:40:21.342Z,618.00
2023-04-22T05:41:21.316Z,629.00
2023-04-22T05:42:21.317Z,613.00
2023-04-22T05:43:21.233Z,609.00
2023-04-22T05:44:21.200Z,612.00
2023-04-22T05:45:21.172Z,619.00
2023-04-22T05:46:21.157Z,616.00
2023-04-22T05:47:21.116Z,619.00
2023-04-22T05:48:21.081Z,609.00
2023-04-22T05:49:21.050Z,613.00
2023-04-22T05:51:20.992Z,621.00
2023-04-22T05:52:20.963Z,594.00
2023-04-22T05:53:20.938Z,604.00
2023-04-22T05:54:20.897Z,615.00
2023-04-22T05:55:20.873Z,603.00
2023-04-22T05:56:20.871Z,597.00
2023-04-22T05:57:20.834Z,598.00
2023-04-22T05:58:20.793Z,607.00
2023-04-22T05:59:21.776Z,616.00
2023-04-22T06:00:20.740Z,592.00
2023-04-22T06:01:20.710Z,598.00
2023-04-22T06:02:20.851Z,603.00
2023-04-22T06:03:20.840Z,601.00
2023-04-22T06:04:20.920Z,600.00
2023-04-22T06:05:20.690Z,593.00
2023-04-22T06:06:20.551Z,592.00
2023-04-22T06:07:20.533Z,596.00
2023-04-22T06:08:20.505Z,594.00
2023-04-22T06:09:20.467Z,593.00
2023-04-22T06:10:20.481Z,575.00
2023-04-22T06:11:20.451Z,583.00
2023-04-22T06:12:20.434Z,585.00
2023-04-22T06:13:20.485Z,586.00
2023-04-22T06:14:20.397Z,595.00
2023-04-22T06:15:20.375Z,586.00
2023-04-22T06:16:20.353Z,580.00
2023-04-22T06:17:20.352Z,579.00
2023-04-22T06:18:20.325Z,572.00
2023-04-22T06:19:20.303Z,580.00
2023-04-22T06:20:20.304Z,582.00
2023-04-22T06:21:20.276Z,581.00
2023-04-22T06:22:20.263Z,586.00
2023-04-22T06:23:20.255Z,587.00
2023-04-22T06:24:20.212Z,575.00
2023-04-22T06:25:20.203Z,576.00
2023-04-22T06:26:20.178Z,575.00
2023-04-22T06:27:20.171Z,587.00
2023-04-22T06:28:20.151Z,577.00
2023-04-22T06:29:20.133Z,585.00
2023-04-22T06:30:20.112Z,577.00
2023-04-22T06:31:21.178Z,578.00
2023-04-22T06:32:20.052Z,576.00
2023-04-22T06:33:20.034Z,584.00
2023-04-22T06:34:20.040Z,559.00
2023-04-22T06:35:20.073Z,576.00
2023-04-22T06:36:20.126Z,585.00
2023-04-22T06:37:20.106Z,573.00
2023-04-22T06:38:20.112Z,569.00
2023-04-22T06:39:20.116Z,560.00
2023-04-22T06:40:20.099Z,572.00
2023-04-22T06:41:20.100Z,566.00
2023-04-22T06:42:20.095Z,562.00
2023-04-22T06:43:20.085Z,577.00
2023-04-22T06:44:20.089Z,572.00
2023-04-22T06:45:20.066Z,559.00
2023-04-22T06:46:20.142Z,562.00
2023-04-22T06:47:20.145Z,570.00
2023-04-22T06:48:20.091Z,570.00
2023-04-22T06:49:20.061Z,572.00
2023-04-22T06:50:20.076Z,565.00
2023-04-22T06:51:20.078Z,557.00
2023-04-22T06:52:21.023Z,568.00
2023-04-22T06:53:20.009Z,561.00
2023-04-22T06:54:19.989Z,567.00
2023-04-22T06:55:19.986Z,554.00
2023-04-22T06:56:20.003Z,551.00
2023-04-22T06:57:20.029Z,564.00
2023-04-22T06:58:20.067Z,555.00
2023-04-22T06:59:20.054Z,561.00
2023-04-22T07:00:20.066Z,564.00
2023-04-22T07:01:20.095Z,551.00
2023-04-22T07:02:20.113Z,570.00
2023-04-22T07:03:20.215Z,559.00
2023-04-22T07:04:20.167Z,549.00
2023-04-22T07:05:20.090Z,556.00
2023-04-22T07:06:20.105Z,553.00
2023-04-22T07:07:20.123Z,538.00
2023-04-22T07:08:20.141Z,553.00
2023-04-22T07:09:20.148Z,543.00
2023-04-22T07:10:20.160Z,548.00
2023-04-22T07:11:20.158Z,545.00
2023-04-22T07:12:20.191Z,549.00
2023-04-22T07:13:20.214Z,545.00
2023-04-22T07:14:20.243Z,546.00
2023-04-22T07:15:20.259Z,543.00
2023-04-22T07:16:20.289Z,541.00
2023-04-22T07:17:20.319Z,545.00
2023-04-22T07:18:20.324Z,551.00
2023-04-22T07:19:20.353Z,542.00
2023-04-22T07:20:20.371Z,533.00
2023-04-22T07:21:20.412Z,551.00
2023-04-22T07:22:20.438Z,540.00
2023-04-22T07:23:20.468Z,543.00
2023-04-22T07:24:20.497Z,536.00
2023-04-22T07:25:20.531Z,539.00
2023-04-22T07:26:20.572Z,534.00
2023-04-22T07:27:20.619Z,548.00
2023-04-22T07:28:20.641Z,544.00
2023-04-22T07:29:20.682Z,538.00
2023-04-22T07:30:20.725Z,548.00
2023-04-22T07:31:20.811Z,543.00
2023-04-22T07:32:20.861Z,538.00
2023-04-22T07:33:20.789Z,532.00
2023-04-22T07:34:21.328Z,528.00
2023-04-22T07:35:20.847Z,533.00
2023-04-22T07:36:20.885Z,541.00
2023-04-22T07:37:20.919Z,540.00
2023-04-22T07:38:20.941Z,537.00
2023-04-22T07:39:20.957Z,533.00
2023-04-22T07:40:20.999Z,526.00
2023-04-22T07:41:21.031Z,528.00
2023-04-22T07:42:21.076Z,545.00
2023-04-22T07:43:21.111Z,525.00
2023-04-22T07:44:21.171Z,530.00
2023-04-22T07:45:21.179Z,526.00
2023-04-22T07:46:22.170Z,527.00
2023-04-22T07:47:21.228Z,528.00
2023-04-22T07:48:21.074Z,531.00
2023-04-22T07:49:21.050Z,531.00
2023-04-22T07:50:21.041Z,524.00
2023-04-22T07:51:20.982Z,530.00
2023-04-22T07:52:20.957Z,523.00
2023-04-22T07:53:20.922Z,522.00
2023-04-22T07:54:20.922Z,520.00
2023-04-22T07:55:20.967Z,523.00
2023-04-22T07:56:21.007Z,522.00
2023-04-22T07:57:21.030Z,521.00
2023-04-22T07:58:21.074Z,525.00
2023-04-22T07:59:21.102Z,529.00
2023-04-22T08:00:21.137Z,519.00
2023-04-22T08:01:21.208Z,527.00
2023-04-22T08:02:21.311Z,535.00
2023-04-22T08:03:21.344Z,527.00
2023-04-22T08:04:21.531Z,517.00
2023-04-22T08:05:21.337Z,521.00
2023-04-22T08:06:21.344Z,528.00
2023-04-22T08:08:21.331Z,525.00
2023-04-22T08:09:21.298Z,527.00
2023-04-22T08:10:21.266Z,519.00
2023-04-22T08:11:21.227Z,525.00
2023-04-22T08:12:21.192Z,521.00
2023-04-22T08:13:21.159Z,516.00
2023-04-22T08:14:21.120Z,519.00
2023-04-22T08:15:21.095Z,521.00
2023-04-22T08:16:21.070Z,512.00
2023-04-22T08:17:21.020Z,521.00
2023-04-22T08:18:21.001Z,524.00
2023-04-22T08:19:20.951Z,516.00
2023-04-22T08:20:20.911Z,516.00
2023-04-22T08:21:20.889Z,513.00
2023-04-22T08:22:20.842Z,514.00
2023-04-22T08:23:20.808Z,515.00
2023-04-22T08:24:20.795Z,512.00
2023-04-22T08:25:20.773Z,513.00
2023-04-22T08:26:20.724Z,516.00
2023-04-22T08:27:20.684Z,510.00
2023-04-22T08:28:20.637Z,510.00
2023-04-22T08:29:20.592Z,515.00
2023-04-22T08:30:20.580Z,514.00
2023-04-22T08:31:21.010Z,512.00
2023-04-22T08:32:20.532Z,517.00
2023-04-22T08:33:20.474Z,508.00
2023-04-22T08:34:20.442Z,514.00
2023-04-22T08:35:20.414Z,512.00
2023-04-22T08:36:20.443Z,511.00
2023-04-22T08:37:20.370Z,512.00
2023-04-22T08:38:20.338Z,510.00
2023-04-22T08:39:20.311Z,509.00
2023-04-22T08:40:20.285Z,511.00
2023-04-22T08:41:20.257Z,509.00
2023-04-22T08:42:20.213Z,512.00
2023-04-22T08:43:20.199Z,513.00
2023-04-22T08:44:20.170Z,507.00
2023-04-22T08:45:20.135Z,503.00
2023-04-22T08:46:20.201Z,504.00
2023-04-22T08:47:20.162Z,505.00
2023-04-22T08:48:20.266Z,509.00
2023-04-22T08:49:20.230Z,509.00
2023-04-22T08:50:20.258Z,503.00
2023-04-22T08:51:20.288Z,509.00
2023-04-22T08:52:20.304Z,510.00
2023-04-22T08:53:21.327Z,509.00
2023-04-22T08:54:20.548Z,508.00
2023-04-22T08:55:20.578Z,505.00
2023-04-22T08:56:20.606Z,503.00
2023-04-22T08:57:20.622Z,500.00
2023-04-22T08:58:20.659Z,506.00
2023-04-22T08:59:20.683Z,508.00
2023-04-22T09:00:20.788Z,508.00
2023-04-22T09:01:20.788Z,511.00
2023-04-22T09:02:20.773Z,504.00
2023-04-22T09:03:20.831Z,510.00
2023-04-22T09:04:20.913Z,505.00
2023-04-22T09:05:20.833Z,508.00
2023-04-22T09:06:20.872Z,507.00
2023-04-22T09:07:20.910Z,503.00
2023-04-22T09:08:20.924Z,508.00
2023-04-22T09:09:20.974Z,510.00
2023-04-22T09:10:20.987Z,506.00
2023-04-22T09:11:21.013Z,512.00
2023-04-22T09:12:21.026Z,507.00
2023-04-22T09:13:21.040Z,510.00
2023-04-22T09:14:21.062Z,508.00
2023-04-22T09:15:21.093Z,506.00
2023-04-22T09:16:21.208Z,507.00
2023-04-22T09:17:21.151Z,503.00
2023-04-22T09:18:21.159Z,507.00
2023-04-22T09:19:21.181Z,505.00
2023-04-22T09:20:21.205Z,520.00
2023-04-22T09:21:21.237Z,509.00
2023-04-22T09:22:21.250Z,505.00
2023-04-22T09:23:21.274Z,511.00
2023-04-22T09:24:21.290Z,506.00
2023-04-22T09:25:21.340Z,510.00
2023-04-22T09:26:21.349Z,505.00
2023-04-22T09:27:21.359Z,505.00
2023-04-22T09:28:21.387Z,508.00
2023-04-22T09:29:21.408Z,506.00
2023-04-22T09:30:21.432Z,511.00
2023-04-22T09:31:21.504Z,509.00
2023-04-22T09:32:21.562Z,507.00
2023-04-22T09:33:21.521Z,509.00
2023-04-22T09:34:21.691Z,504.00
2023-04-22T09:35:21.545Z,507.00
2023-04-22T09:36:21.582Z,506.00
2023-04-22T09:37:21.606Z,512.00
2023-04-22T09:38:21.621Z,511.00
2023-04-22T09:39:21.650Z,508.00
2023-04-22T09:40:21.677Z,508.00
2023-04-22T09:41:21.703Z,514.00
2023-04-22T09:42:21.718Z,508.00
2023-04-22T09:43:21.746Z,501.00
2023-04-22T09:44:21.776Z,510.00
2023-04-22T09:45:21.802Z,503.00
2023-04-22T09:46:21.900Z,505.00
2023-04-22T09:47:21.860Z,503.00
2023-04-22T09:48:21.887Z,509.00
2023-04-22T09:49:21.906Z,508.00
2023-04-22T09:50:21.937Z,509.00
2023-04-22T09:51:21.980Z,506.00
2023-04-22T09:52:21.979Z,504.00
2023-04-22T09:53:22.008Z,505.00
2023-04-22T09:54:22.013Z,505.00
2023-04-22T09:55:22.047Z,504.00
2023-04-22T09:56:22.064Z,506.00
2023-04-22T09:57:22.098Z,504.00
2023-04-22T09:58:22.109Z,501.00
2023-04-22T09:59:22.136Z,510.00
2023-04-22T10:00:22.148Z,505.00
2023-04-22T10:01:22.188Z,507.00
2023-04-22T10:02:22.277Z,506.00
2023-04-22T10:03:22.210Z,507.00
2023-04-22T10:04:22.260Z,508.00
2023-04-22T10:05:22.253Z,507.00
2023-04-22T10:06:22.286Z,509.00
2023-04-22T10:07:22.298Z,509.00
2023-04-22T10:08:22.318Z,509.00
2023-04-22T10:09:22.336Z,504.00
2023-04-22T10:10:22.354Z,507.00
2023-04-22T10:11:22.380Z,508.00
2023-04-22T10:12:32.855Z,502.00
2023-04-22T10:13:23.364Z,503.00
2023-04-22T10:14:22.306Z,504.00
2023-04-22T10:15:23.158Z,505.00
2023-04-22T10:16:22.255Z,508.00
2023-04-22T10:17:22.213Z,511.00
2023-04-22T10:18:22.142Z,505.00
2023-04-22T10:19:22.097Z,508.00
2023-04-22T10:20:22.059Z,508.00
2023-04-22T10:21:22.026Z,510.00
2023-04-22T10:22:22.049Z,509.00
2023-04-22T10:23:22.058Z,505.00
2023-04-22T10:24:22.076Z,506.00
2023-04-22T10:25:22.113Z,509.00
2023-04-22T10:26:22.113Z,505.00
2023-04-22T10:27:22.113Z,506.00
2023-04-22T10:28:22.127Z,502.00
2023-04-22T10:29:22.137Z,503.00
2023-04-22T10:30:22.158Z,509.00
2023-04-22T10:31:22.282Z,508.00
2023-04-22T10:32:22.194Z,506.00
2023-04-22T10:33:22.188Z,507.00
2023-04-22T10:34:22.201Z,508.00
2023-04-22T10:35:22.209Z,508.00
2023-04-22T10:36:22.209Z,501.00
2023-04-22T10:37:22.258Z,507.00
2023-04-22T10:38:22.245Z,503.00
2023-04-22T10:39:22.433Z,507.00
2023-04-22T10:40:22.275Z,506.00
2023-04-22T10:41:22.295Z,504.00
2023-04-22T10:42:22.294Z,507.00
2023-04-22T10:43:22.295Z,511.00
2023-04-22T10:44:22.303Z,506.00
2023-04-22T10:45:22.313Z,506.00
2023-04-22T10:46:22.367Z,505.00
2023-04-22T10:47:22.366Z,510.00
2023-04-22T10:48:22.346Z,504.00
2023-04-22T10:49:22.362Z,506.00
2023-04-22T10:50:22.378Z,509.00
2023-04-22T10:51:22.369Z,507.00
2023-04-22T10:52:22.375Z,511.00
2023-04-22T10:53:22.392Z,507.00
2023-04-22T10:54:22.386Z,507.00
2023-04-22T10:55:22.421Z,511.00
2023-04-22T10:56:22.400Z,507.00
2023-04-22T10:57:22.400Z,512.00
2023-04-22T10:58:22.396Z,512.00
2023-04-22T10:59:22.402Z,510.00
2023-04-22T11:00:22.401Z,505.00
2023-04-22T11:01:22.423Z,511.00
2023-04-22T11:02:22.424Z,512.00
2023-04-22T11:03:22.672Z,509.00
2023-04-22T11:04:22.578Z,504.00
2023-04-22T11:05:24.583Z,502.00
2023-04-22T11:06:22.409Z,511.00
2023-04-22T11:07:22.305Z,512.00
2023-04-22T11:08:22.258Z,508.00
2023-04-22T11:09:22.222Z,506.00
2023-04-22T11:10:22.163Z,504.00
2023-04-22T11:11:22.116Z,502.00
2023-04-22T11:12:22.068Z,509.00
2023-04-22T11:13:22.024Z,514.00
2023-04-22T11:14:21.965Z,503.00
2023-04-22T11:15:21.908Z,505.00
2023-04-22T11:16:22.459Z,508.00
2023-04-22T11:17:21.828Z,504.00
2023-04-22T11:18:21.753Z,507.00
2023-04-22T11:19:21.715Z,508.00
2023-04-22T11:20:21.666Z,507.00
2023-04-22T11:21:21.690Z,507.00
2023-04-22T11:22:21.584Z,507.00
2023-04-22T11:23:21.541Z,511.00
2023-04-22T11:24:21.531Z,513.00
2023-04-22T11:25:21.450Z,509.00
2023-04-22T11:26:21.407Z,508.00
2023-04-22T11:27:21.352Z,508.00
2023-04-22T11:28:21.671Z,507.00
2023-04-22T11:29:21.258Z,505.00
2023-04-22T11:30:21.197Z,503.00
2023-04-22T11:31:21.177Z,507.00
2023-04-22T11:32:21.103Z,507.00
2023-04-22T11:33:21.064Z,508.00
2023-04-22T11:34:21.004Z,505.00
2023-04-22T11:35:20.952Z,507.00
2023-04-22T11:36:20.902Z,509.00
2023-04-22T11:37:20.853Z,502.00
2023-04-22T11:38:20.808Z,509.00
2023-04-22T11:39:20.749Z,508.00
2023-04-22T11:40:29.281Z,507.00
2023-04-22T11:41:21.655Z,508.00
2023-04-22T11:42:20.605Z,508.00
2023-04-22T11:43:20.571Z,511.00
2023-04-22T11:44:20.510Z,511.00
2023-04-22T11:45:20.455Z,511.00
2023-04-22T11:46:22.297Z,511.00
2023-04-22T11:47:20.426Z,504.00
2023-04-22T11:48:20.312Z,504.00
2023-04-22T11:49:20.268Z,509.00
2023-04-22T11:50:20.222Z,507.00
2023-04-22T11:51:20.173Z,512.00
2023-04-22T11:52:21.194Z,507.00
2023-04-22T11:53:20.072Z,511.00
2023-04-22T11:54:20.010Z,506.00
2023-04-22T11:55:19.985Z,504.00
2023-04-22T11:56:19.913Z,505.00
2023-04-22T11:57:19.873Z,512.00
2023-04-22T11:58:19.810Z,514.00
2023-04-22T11:59:19.764Z,502.00
2023-04-22T12:00:19.714Z,502.00
2023-04-22T12:01:19.671Z,503.00
2023-04-22T12:02:19.707Z,509.00
2023-04-22T12:03:19.775Z,507.00
2023-04-22T12:04:19.623Z,504.00
2023-04-22T12:05:19.507Z,510.00
2023-04-22T12:06:19.438Z,509.00
2023-04-22T12:07:19.387Z,504.00
2023-04-22T12:08:19.329Z,508.00
2023-04-22T12:09:19.269Z,502.00
2023-04-22T12:10:19.229Z,504.00
2023-04-22T12:11:19.513Z,506.00
2023-04-22T12:12:19.137Z,508.00
2023-04-22T12:13:19.073Z,510.00
2023-04-22T12:14:19.025Z,508.00
2023-04-22T12:15:19.009Z,503.00
2023-04-22T12:16:19.133Z,505.00
2023-04-22T12:17:18.867Z,505.00
2023-04-22T12:18:18.814Z,501.00
2023-04-22T12:19:18.760Z,506.00
2023-04-22T12:20:18.717Z,506.00
2023-04-22T12:21:18.667Z,507.00
2023-04-22T12:22:18.604Z,504.00
2023-04-22T12:23:18.557Z,509.00
2023-04-22T12:24:18.508Z,508.00
2023-04-22T12:25:18.466Z,506.00
2023-04-22T12:26:18.435Z,508.00
2023-04-22T12:27:18.409Z,511.00
2023-04-22T12:28:18.452Z,508.00
2023-04-22T12:29:18.329Z,509.00